createdAt,value
2023-03-27T00:02:13.882Z,20.27
2023-03-27T00:04:42.460Z,18.35
2023-03-27T00:07:09.444Z,16.42
2023-03-27T00:09:37.255Z,34.92
2023-03-27T00:12:04.491Z,49.30
2023-03-27T00:14:32.113Z,55.58
2023-03-27T00:17:00.269Z,42.40
2023-03-27T00:19:27.724Z,32.35
2023-03-27T00:21:55.188Z,27.08
2023-03-27T00:24:22.845Z,17.13
2023-03-27T00:26:49.798Z,17.88
2023-03-27T00:29:18.237Z,24.10
2023-03-27T00:31:45.654Z,17.70
2023-03-27T00:34:16.312Z,12.75
2023-03-27T00:36:43.816Z,10.85
2023-03-27T00:39:11.248Z,8.98
2023-03-27T00:41:38.275Z,9.07
2023-03-27T00:44:34.472Z,8.20
2023-03-27T00:47:04.218Z,7.07
2023-03-27T00:49:35.030Z,6.35
2023-03-27T00:52:04.176Z,6.68
2023-03-27T00:54:36.065Z,10.23
2023-03-27T00:57:07.172Z,10.10
2023-03-27T00:59:39.645Z,9.63
2023-03-27T01:02:08.205Z,9.18
2023-03-27T01:04:37.409Z,8.93
2023-03-27T01:07:07.475Z,8.55
2023-03-27T01:09:34.991Z,9.23
2023-03-27T01:12:23.160Z,10.98
2023-03-27T01:15:05.355Z,11.75
2023-03-27T01:17:47.630Z,13.95
2023-03-27T01:20:41.245Z,14.63
2023-03-27T01:23:59.784Z,10.25
2023-03-27T01:26:42.627Z,7.43
2023-03-27T01:29:09.688Z,5.65
2023-03-27T01:32:00.975Z,9.07
2023-03-27T01:34:47.956Z,6.13
2023-03-27T01:38:03.944Z,6.32
2023-03-27T01:40:43.748Z,5.68
2023-03-27T01:43:17.345Z,6.05
2023-03-27T01:46:20.592Z,8.15
2023-03-27T01:48:58.111Z,12.88
2023-03-27T01:51:35.736Z,14.23
2023-03-27T01:54:18.144Z,12.73
2023-03-27T01:56:53.840Z,9.63
2023-03-27T01:59:27.691Z,9.55
2023-03-27T02:02:11.875Z,7.95
2023-03-27T02:04:49.062Z,9.20
2023-03-27T02:07:21.974Z,8.77
2023-03-27T02:09:55.551Z,8.05
2023-03-27T02:12:37.916Z,7.38
2023-03-27T02:15:23.100Z,6.97
2023-03-27T02:18:05.867Z,6.32
2023-03-27T02:20:34.925Z,8.10
2023-03-27T02:23:02.087Z,6.03
2023-03-27T02:25:34.285Z,6.10
2023-03-27T02:28:10.698Z,7.63
2023-03-27T02:31:05.434Z,6.95
2023-03-27T02:34:26.618Z,5.95
2023-03-27T02:36:57.101Z,5.82
2023-03-27T02:40:20.656Z,5.50
2023-03-27T02:43:12.924Z,5.07
2023-03-27T02:46:05.619Z,5.30
2023-03-27T02:48:43.220Z,6.27
2023-03-27T02:51:17.486Z,7.28
2023-03-27T02:54:03.252Z,27.85
2023-03-27T02:56:38.551Z,6.38
2023-03-27T02:59:13.139Z,9.68
2023-03-27T03:01:44.951Z,12.00
2023-03-27T03:04:41.685Z,16.90
2023-03-27T03:07:16.126Z,17.10
2023-03-27T03:09:44.683Z,16.95
2023-03-27T03:12:12.300Z,20.90
2023-03-27T03:14:46.661Z,16.05
2023-03-27T03:17:16.010Z,22.80
2023-03-27T03:19:43.524Z,50.67
2023-03-27T03:22:10.801Z,19.00
2023-03-27T03:24:42.392Z,27.23
2023-03-27T03:27:14.286Z,23.02
2023-03-27T03:29:50.743Z,17.10
2023-03-27T03:32:26.523Z,44.78
2023-03-27T03:34:54.034Z,41.60
2023-03-27T03:37:21.400Z,13.23
2023-03-27T03:39:49.041Z,23.45
2023-03-27T03:42:22.866Z,12.20
2023-03-27T03:44:53.151Z,30.80
2023-03-27T03:47:22.262Z,30.02
2023-03-27T03:49:50.384Z,12.77
2023-03-27T03:52:17.977Z,19.67
2023-03-27T03:54:46.703Z,9.73
2023-03-27T03:59:41.627Z,5.63
2023-03-27T04:02:28.664Z,6.15
2023-03-27T04:05:09.366Z,9.48
2023-03-27T04:07:40.093Z,9.43
2023-03-27T04:10:30.554Z,7.50
2023-03-27T04:12:59.722Z,6.78
2023-03-27T04:15:30.285Z,7.15
2023-03-27T04:18:00.447Z,5.63
2023-03-27T04:20:28.739Z,5.55
2023-03-27T04:23:02.290Z,5.22
2023-03-27T04:25:30.916Z,4.43
2023-03-27T04:27:58.831Z,4.35
2023-03-27T04:33:19.373Z,7.60
2023-03-27T04:36:06.385Z,6.93
2023-03-27T04:39:02.387Z,6.38
2023-03-27T04:41:32.666Z,7.65
2023-03-27T04:44:00.270Z,4.72
2023-03-27T04:46:29.350Z,10.80
2023-03-27T04:49:01.927Z,6.57
2023-03-27T04:51:42.716Z,8.95
2023-03-27T04:54:11.857Z,4.78
2023-03-27T04:56:45.453Z,6.93
2023-03-27T04:59:13.485Z,7.95
2023-03-27T05:01:41.374Z,8.13
2023-03-27T05:04:26.331Z,8.27
2023-03-27T05:07:23.017Z,7.63
2023-03-27T05:09:50.679Z,6.93
2023-03-27T05:12:18.098Z,9.55
2023-03-27T05:14:51.924Z,10.98
2023-03-27T05:17:34.308Z,11.52
2023-03-27T05:20:01.925Z,10.90
2023-03-27T05:22:34.762Z,23.30
2023-03-27T05:25:10.634Z,13.07
2023-03-27T05:27:40.139Z,15.82
2023-03-27T05:30:07.919Z,14.55
2023-03-27T05:32:35.704Z,9.77
2023-03-27T05:35:12.516Z,8.75
2023-03-27T05:37:48.811Z,11.00
2023-03-27T05:40:29.655Z,126.55
2023-03-27T05:42:57.889Z,74.55
2023-03-27T05:45:29.391Z,21.48
2023-03-27T05:47:58.899Z,31.00
2023-03-27T05:50:33.270Z,7.03
2023-03-27T05:53:03.981Z,5.50
2023-03-27T05:55:36.218Z,6.32
2023-03-27T05:58:06.548Z,24.10
2023-03-27T06:00:34.360Z,8.38
2023-03-27T06:03:04.096Z,60.80
2023-03-27T06:05:52.761Z,97.45
2023-03-27T06:08:20.784Z,24.13
2023-03-27T06:10:48.561Z,84.32
2023-03-27T06:13:24.184Z,50.75
2023-03-27T06:16:05.695Z,86.85
2023-03-27T06:18:56.420Z,52.90
2023-03-27T06:21:25.419Z,52.33
2023-03-27T06:23:58.964Z,263.75
2023-03-27T06:26:28.376Z,73.00
2023-03-27T06:28:58.362Z,30.13
2023-03-27T06:31:29.107Z,31.05
2023-03-27T06:34:15.111Z,21.13
2023-03-27T06:37:05.270Z,15.30
2023-03-27T06:39:39.630Z,18.73
2023-03-27T06:42:06.898Z,27.10
2023-03-27T06:44:39.227Z,13.70
2023-03-27T06:47:18.927Z,7.82
2023-03-27T06:49:58.575Z,8.68
2023-03-27T06:52:25.670Z,12.07
2023-03-27T06:54:57.528Z,7.40
2023-03-27T06:57:24.588Z,7.85
2023-03-27T07:00:02.157Z,5.05
2023-03-27T07:02:54.343Z,5.88
2023-03-27T07:05:42.768Z,7.00
2023-03-27T07:08:22.580Z,8.07
2023-03-27T07:11:08.061Z,9.75
2023-03-27T07:13:43.462Z,5.65
2023-03-27T07:16:20.671Z,6.20
2023-03-27T07:18:48.210Z,7.20
2023-03-27T07:21:15.900Z,8.38
2023-03-27T07:23:43.699Z,5.50
2023-03-27T07:26:13.924Z,5.25
2023-03-27T07:29:00.979Z,3.95
2023-03-27T07:31:42.453Z,7.22
2023-03-27T07:34:16.813Z,3.78
2023-03-27T07:37:07.223Z,3.00
2023-03-27T07:39:36.365Z,8.02
2023-03-27T07:42:04.009Z,33.20
2023-03-27T07:44:42.631Z,8.68
2023-03-27T07:47:10.726Z,11.93
2023-03-27T07:49:39.708Z,9.27
2023-03-27T07:52:09.235Z,8.35
2023-03-27T07:54:45.771Z,12.90
2023-03-27T07:57:16.650Z,14.02
2023-03-27T07:59:59.913Z,7.00
2023-03-27T08:02:52.988Z,15.90
2023-03-27T08:05:20.207Z,19.10
2023-03-27T08:07:59.604Z,10.95
2023-03-27T08:10:42.519Z,12.43
2023-03-27T08:13:12.678Z,13.80
2023-03-27T08:15:39.808Z,17.15
2023-03-27T08:18:19.555Z,12.93
2023-03-27T08:20:48.178Z,5.85
2023-03-27T08:23:17.031Z,10.40
2023-03-27T08:26:13.968Z,11.25
2023-03-27T08:28:54.148Z,14.32
2023-03-27T08:31:25.754Z,5.45
2023-03-27T08:33:58.529Z,7.60
2023-03-27T08:36:29.014Z,5.65
2023-03-27T08:38:57.205Z,4.80
2023-03-27T08:42:04.345Z,4.10
2023-03-27T08:44:40.014Z,3.17
2023-03-27T08:47:36.397Z,5.20
2023-03-27T08:50:32.276Z,4.88
2023-03-27T08:53:49.687Z,6.32
2023-03-27T08:56:25.391Z,5.30
2023-03-27T08:58:54.302Z,9.15
2023-03-27T09:01:49.961Z,5.65
2023-03-27T09:04:32.517Z,2.80
2023-03-27T09:07:15.134Z,5.25
2023-03-27T09:10:43.516Z,14.85
2023-03-27T09:13:39.079Z,2.22
2023-03-27T09:16:48.752Z,2.13
2023-03-27T09:19:27.182Z,5.60
2023-03-27T09:22:04.045Z,6.15
2023-03-27T09:25:01.017Z,5.15
2023-03-27T09:27:34.334Z,3.08
2023-03-27T09:30:26.323Z,3.50
2023-03-27T09:33:04.866Z,2.40
2023-03-27T09:35:35.486Z,3.20
2023-03-27T09:38:17.979Z,2.97
2023-03-27T09:40:52.917Z,2.67
2023-03-27T09:43:27.530Z,2.67
2023-03-27T09:46:00.708Z,3.13
2023-03-27T09:48:38.311Z,2.50
2023-03-27T09:51:47.707Z,2.85
2023-03-27T09:54:56.520Z,4.95
2023-03-27T09:57:39.264Z,7.72
2023-03-27T10:00:27.691Z,4.13
2023-03-27T10:03:06.762Z,8.30
2023-03-27T10:05:38.906Z,9.27
2023-03-27T10:08:42.161Z,6.35
2023-03-27T10:11:20.547Z,20.52
2023-03-27T10:14:17.603Z,15.95
2023-03-27T10:16:47.804Z,19.65
2023-03-27T10:19:29.353Z,14.73
2023-03-27T10:22:16.064Z,20.25
2023-03-27T10:24:47.973Z,6.93
2023-03-27T10:27:27.566Z,7.53
2023-03-27T10:30:34.502Z,7.32
2023-03-27T10:33:37.568Z,8.18
2023-03-27T10:36:16.042Z,11.18
2023-03-27T10:38:48.940Z,16.88
2023-03-27T10:44:00.825Z,69.88
2023-03-27T10:46:30.536Z,10.40
2023-03-27T10:49:51.653Z,16.30
2023-03-27T10:52:49.792Z,30.23
2023-03-27T10:55:41.406Z,22.55
2023-03-27T10:58:26.572Z,29.27
2023-03-27T11:01:05.794Z,7.40
2023-03-27T11:04:08.495Z,12.50
2023-03-27T11:06:48.063Z,16.40
2023-03-27T11:09:37.545Z,5.35
2023-03-27T11:12:12.106Z,2.88
2023-03-27T11:15:11.639Z,4.72
2023-03-27T11:17:53.272Z,5.10
2023-03-27T11:20:37.177Z,6.57
2023-03-27T11:23:24.629Z,5.43
2023-03-27T11:26:15.794Z,5.82
2023-03-27T11:29:09.300Z,3.00
2023-03-27T11:31:49.407Z,2.40
2023-03-27T11:34:48.389Z,4.47
2023-03-27T11:37:46.547Z,3.50
2023-03-27T11:40:31.009Z,7.90
2023-03-27T11:43:04.253Z,15.15
2023-03-27T11:46:09.540Z,4.47
2023-03-27T11:49:02.404Z,6.20
2023-03-27T11:51:29.558Z,3.38
2023-03-27T11:54:10.516Z,4.78
2023-03-27T12:00:04.590Z,7.63
2023-03-27T12:03:28.730Z,9.05
2023-03-27T12:06:14.896Z,4.20
2023-03-27T12:08:52.072Z,4.60
2023-03-27T12:11:21.538Z,4.97
2023-03-27T12:14:40.174Z,10.27
2023-03-27T12:17:37.391Z,7.47
2023-03-27T12:20:21.913Z,6.82
2023-03-27T12:23:07.950Z,5.68
2023-03-27T12:25:51.478Z,5.35
2023-03-27T12:29:29.989Z,3.95
2023-03-27T12:32:38.130Z,6.35
2023-03-27T12:35:14.850Z,3.42
2023-03-27T12:38:02.089Z,6.05
2023-03-27T12:40:40.545Z,5.47
2023-03-27T12:43:39.490Z,7.15
2023-03-27T12:46:23.505Z,4.22
2023-03-27T12:49:10.775Z,4.10
2023-03-27T12:51:54.235Z,19.25
2023-03-27T12:54:40.300Z,14.80
2023-03-27T12:57:44.706Z,9.68
2023-03-27T13:00:21.510Z,25.48
2023-03-27T13:03:11.843Z,4.50
2023-03-27T13:06:03.799Z,41.05
2023-03-27T13:09:03.093Z,57.78
2023-03-27T13:11:50.251Z,6.13
2023-03-27T13:14:20.465Z,6.15
2023-03-27T13:17:12.674Z,4.88
2023-03-27T13:20:08.930Z,8.82
2023-03-27T13:22:46.232Z,8.25
2023-03-27T13:25:44.281Z,7.97
2023-03-27T13:28:32.400Z,6.95
2023-03-27T13:31:11.732Z,4.05
2023-03-27T13:33:47.497Z,8.25
2023-03-27T13:36:30.171Z,8.00
2023-03-27T13:38:57.285Z,9.18
2023-03-27T13:41:43.638Z,5.13
2023-03-27T13:44:55.851Z,21.67
2023-03-27T13:47:33.572Z,16.65
2023-03-27T13:50:18.886Z,42.05
2023-03-27T13:53:37.703Z,8.50
2023-03-27T13:56:41.601Z,12.95
2023-03-27T13:59:43.145Z,10.50
2023-03-27T14:02:39.256Z,6.00
2023-03-27T14:05:36.036Z,5.47
2023-03-27T14:11:24.820Z,6.88
2023-03-27T14:14:28.531Z,3.70
2023-03-27T14:17:06.046Z,28.70
2023-03-27T14:19:42.361Z,49.03
2023-03-27T14:22:40.381Z,9.45
2023-03-27T14:25:15.712Z,31.92
2023-03-27T14:27:54.535Z,18.40
2023-03-27T14:30:28.885Z,9.35
2023-03-27T14:33:19.996Z,23.80
2023-03-27T14:36:05.556Z,13.75
2023-03-27T14:38:37.336Z,37.63
2023-03-27T14:41:24.344Z,31.80
2023-03-27T14:44:03.393Z,12.30
2023-03-27T14:46:33.974Z,36.70
2023-03-27T14:49:24.545Z,46.72
2023-03-27T14:52:03.966Z,54.63
2023-03-27T14:54:55.574Z,48.85
2023-03-27T14:57:28.025Z,23.13
2023-03-27T14:59:59.327Z,29.55
2023-03-27T15:02:31.793Z,39.50
2023-03-27T15:05:17.206Z,34.72
2023-03-27T15:07:49.168Z,20.52
2023-03-27T15:10:37.341Z,23.50
2023-03-27T15:13:10.375Z,10.85
2023-03-27T15:18:25.388Z,12.48
2023-03-27T15:20:54.087Z,19.80
2023-03-27T15:23:31.247Z,8.50
2023-03-27T15:26:14.901Z,9.95
2023-03-27T15:29:28.565Z,74.38
2023-03-27T15:31:57.419Z,116.18
2023-03-27T15:34:36.410Z,78.10
2023-03-27T15:37:13.055Z,12.50
2023-03-27T15:40:00.481Z,14.93
2023-03-27T15:42:55.916Z,13.73
2023-03-27T15:45:36.897Z,53.27
2023-03-27T15:48:21.859Z,94.20
2023-03-27T15:51:03.923Z,104.70
2023-03-27T15:53:43.032Z,37.53
2023-03-27T15:56:12.853Z,46.08
2023-03-27T15:58:43.938Z,118.40
2023-03-27T16:01:18.742Z,91.22
2023-03-27T16:03:50.497Z,101.78
2023-03-27T16:06:33.900Z,26.58
2023-03-27T16:09:04.485Z,106.45
2023-03-27T16:11:46.786Z,64.55
2023-03-27T16:14:19.889Z,80.00
2023-03-27T16:16:47.114Z,77.32
2023-03-27T16:19:16.423Z,119.97
2023-03-27T16:22:03.709Z,108.60
2023-03-27T16:24:30.996Z,42.22
2023-03-27T16:26:58.076Z,75.53
2023-03-27T16:29:25.457Z,102.85
2023-03-27T16:31:52.512Z,153.35
2023-03-27T16:34:23.622Z,34.22
2023-03-27T16:36:50.975Z,22.50
2023-03-27T16:39:18.392Z,24.30
2023-03-27T16:41:45.883Z,37.53
2023-03-27T16:44:13.415Z,73.07
2023-03-27T16:46:41.028Z,102.28
2023-03-27T16:49:12.199Z,85.32
2023-03-27T16:51:39.301Z,56.05
2023-03-27T16:54:07.182Z,71.63
2023-03-27T16:56:35.183Z,32.45
2023-03-27T16:59:04.081Z,44.17
2023-03-27T17:01:31.290Z,46.05
2023-03-27T17:03:58.940Z,15.68
2023-03-27T17:06:26.088Z,32.60
2023-03-27T17:08:55.644Z,32.25
2023-03-27T17:11:23.720Z,51.60
2023-03-27T17:13:51.526Z,53.47
2023-03-27T17:16:19.167Z,51.10
2023-03-27T17:18:46.637Z,31.80
2023-03-27T17:21:13.810Z,14.93
2023-03-27T17:23:43.525Z,11.13
2023-03-27T17:26:15.461Z,19.60
2023-03-27T17:28:49.916Z,22.50
2023-03-27T17:31:17.256Z,25.05
2023-03-27T17:33:47.003Z,45.58
2023-03-27T17:36:21.629Z,158.15
2023-03-27T17:38:54.346Z,162.70
2023-03-27T17:41:21.695Z,81.03
2023-03-27T17:43:50.186Z,251.27
2023-03-27T17:46:17.392Z,282.40
2023-03-27T17:48:44.913Z,228.90
2023-03-27T17:51:12.066Z,668.25
2023-03-27T17:53:40.008Z,862.00
2023-03-27T17:56:07.811Z,688.63
2023-03-27T17:58:37.124Z,690.63
2023-03-27T18:01:16.677Z,894.72
2023-03-27T18:03:45.273Z,806.00
2023-03-27T18:06:13.761Z,409.50
2023-03-27T18:08:41.091Z,290.70
2023-03-27T18:11:12.978Z,95.38
2023-03-27T18:13:41.630Z,43.95
2023-03-27T18:16:10.742Z,55.60
2023-03-27T18:18:39.333Z,64.32
2023-03-27T18:21:08.855Z,32.17
2023-03-27T18:23:38.401Z,35.58
2023-03-27T18:26:13.548Z,20.17
2023-03-27T18:28:41.191Z,31.50
2023-03-27T18:31:10.586Z,58.00
2023-03-27T18:33:38.528Z,40.03
2023-03-27T18:36:11.972Z,62.13
2023-03-27T18:38:41.034Z,60.42
2023-03-27T18:41:08.706Z,45.95
2023-03-27T18:43:39.400Z,39.50
2023-03-27T18:46:07.475Z,34.88
2023-03-27T18:48:35.945Z,45.17
2023-03-27T18:51:05.704Z,47.17
2023-03-27T18:53:33.870Z,40.78
2023-03-27T18:56:02.033Z,42.40
2023-03-27T18:58:32.003Z,38.92
2023-03-27T19:01:00.234Z,47.92
2023-03-27T19:03:34.923Z,49.75
2023-03-27T19:06:04.743Z,47.15
2023-03-27T19:08:32.647Z,40.13
2023-03-27T19:11:00.273Z,51.90
2023-03-27T19:13:46.728Z,52.15
2023-03-27T19:16:35.043Z,66.85
2023-03-27T19:19:25.460Z,52.35
2023-03-27T19:21:53.209Z,47.20
2023-03-27T19:24:41.824Z,47.20
2023-03-27T19:27:24.011Z,55.50
2023-03-27T19:29:53.455Z,49.25
2023-03-27T19:32:21.857Z,39.65
2023-03-27T19:34:49.501Z,45.17
2023-03-27T19:37:19.661Z,36.20
2023-03-27T19:39:51.279Z,33.60
2023-03-27T19:42:18.784Z,30.98
2023-03-27T19:44:46.436Z,22.45
2023-03-27T19:47:13.526Z,19.50
2023-03-27T19:49:46.140Z,36.88
2023-03-27T19:55:36.162Z,14.38
2023-03-27T19:58:04.279Z,13.10
2023-03-27T20:00:35.107Z,47.95
2023-03-27T20:03:06.333Z,63.63
2023-03-27T20:05:33.849Z,32.17
2023-03-27T20:08:02.215Z,17.52
2023-03-27T20:10:33.141Z,16.10
2023-03-27T20:13:02.065Z,39.20
2023-03-27T20:15:29.886Z,70.18
2023-03-27T20:17:57.027Z,41.00
2023-03-27T20:20:24.328Z,22.95
2023-03-27T20:22:57.530Z,15.80
2023-03-27T20:25:25.400Z,19.35
2023-03-27T20:27:52.493Z,46.78
2023-03-27T20:30:19.918Z,87.45
2023-03-27T20:32:49.600Z,63.00
2023-03-27T20:35:24.817Z,90.70
2023-03-27T20:37:56.467Z,94.25
2023-03-27T20:40:27.964Z,94.40
2023-03-27T20:43:03.054Z,84.65
2023-03-27T20:45:31.321Z,68.47
2023-03-27T20:48:03.823Z,125.75
2023-03-27T20:50:35.685Z,97.57
2023-03-27T20:53:04.444Z,154.65
2023-03-27T20:55:34.611Z,133.25
2023-03-27T20:58:06.719Z,148.85
2023-03-27T21:00:34.845Z,143.52
2023-03-27T21:03:02.107Z,112.07
2023-03-27T21:05:30.305Z,57.05
2023-03-27T21:07:58.503Z,53.88
2023-03-27T21:10:25.923Z,99.90
2023-03-27T21:12:54.159Z,81.03
2023-03-27T21:15:21.774Z,71.68
2023-03-27T21:17:48.863Z,108.18
2023-03-27T21:20:19.308Z,78.13
2023-03-27T21:22:48.550Z,126.82
2023-03-27T21:25:16.009Z,141.68
2023-03-27T21:27:43.084Z,129.52
2023-03-27T21:30:11.105Z,118.55
2023-03-27T21:32:38.218Z,106.53
2023-03-27T21:35:06.202Z,105.18
2023-03-27T21:37:33.267Z,93.47
2023-03-27T21:40:00.539Z,58.22
2023-03-27T21:42:27.590Z,51.80
2023-03-27T21:44:57.058Z,53.53
2023-03-27T21:47:31.637Z,52.80
2023-03-27T21:50:06.053Z,33.83
2023-03-27T21:52:35.782Z,29.73
2023-03-27T21:55:03.744Z,27.65
2023-03-27T21:57:30.989Z,27.70
2023-03-27T21:59:58.304Z,25.60
2023-03-27T22:02:28.281Z,27.38
2023-03-27T22:05:04.399Z,27.92
2023-03-27T22:07:31.888Z,26.55
2023-03-27T22:09:59.179Z,42.95
2023-03-27T22:12:26.318Z,32.22
2023-03-27T22:14:53.590Z,29.13
2023-03-27T22:17:20.787Z,27.33
2023-03-27T22:19:52.475Z,25.40
2023-03-27T22:22:19.616Z,28.23
2023-03-27T22:24:46.956Z,23.95
2023-03-27T22:27:14.061Z,21.23
2023-03-27T22:29:41.457Z,17.15
2023-03-27T22:32:08.636Z,21.25
2023-03-27T22:34:38.065Z,23.35
2023-03-27T22:37:06.566Z,24.35
2023-03-27T22:39:34.240Z,31.08
2023-03-27T22:42:01.512Z,52.60
2023-03-27T22:44:31.068Z,39.40
2023-03-27T22:46:59.745Z,27.65
2023-03-27T22:49:28.646Z,20.48
2023-03-27T22:51:55.837Z,20.17
2023-03-27T22:54:23.185Z,14.82
2023-03-27T22:56:50.654Z,13.70
2023-03-27T22:59:18.035Z,14.20
2023-03-27T23:01:45.113Z,13.15
2023-03-27T23:04:12.406Z,12.70
2023-03-27T23:06:39.582Z,12.70
2023-03-27T23:09:08.456Z,17.70
2023-03-27T23:11:35.760Z,16.40
2023-03-27T23:14:03.211Z,15.35
2023-03-27T23:16:30.286Z,16.00
2023-03-27T23:18:57.716Z,14.48
2023-03-27T23:21:24.695Z,11.75
2023-03-27T23:23:52.189Z,12.48
2023-03-27T23:26:19.498Z,11.82
2023-03-27T23:28:49.244Z,9.07
2023-03-27T23:31:20.169Z,8.10
2023-03-27T23:33:50.649Z,10.10
2023-03-27T23:36:24.936Z,8.68
2023-03-27T23:38:53.546Z,9.35
2023-03-27T23:41:21.024Z,8.98
2023-03-27T23:43:49.206Z,10.55
2023-03-27T23:46:16.845Z,9.15
2023-03-27T23:48:44.885Z,12.32
2023-03-27T23:51:16.262Z,11.70
2023-03-27T23:53:44.106Z,14.52
2023-03-27T23:56:14.173Z,25.75
2023-03-27T23:58:41.554Z,37.35
